createdAt,value
2022-09-28T00:01:21.531Z,89.47
2022-09-28T00:03:51.050Z,88.98
2022-09-28T00:06:21.329Z,88.13
2022-09-28T00:08:52.392Z,87.62
2022-09-28T00:11:21.662Z,88.61
2022-09-28T00:13:52.529Z,88.60
2022-09-28T00:16:22.712Z,87.76
2022-09-28T00:18:51.498Z,89.85
2022-09-28T00:21:25.104Z,89.94
2022-09-28T00:24:15.015Z,91.45
2022-09-28T00:26:57.430Z,91.95
2022-09-28T00:29:29.274Z,91.44
2022-09-28T00:32:03.164Z,90.76
2022-09-28T00:34:43.393Z,90.07
2022-09-28T00:37:11.086Z,91.71
2022-09-28T00:39:44.125Z,92.27
2022-09-28T00:42:26.572Z,90.92
2022-09-28T00:44:56.402Z,92.31
2022-09-28T00:47:28.531Z,92.06
2022-09-28T00:50:02.160Z,90.22
2022-09-28T00:53:25.192Z,92.36
2022-09-28T00:55:57.311Z,90.15
2022-09-28T00:58:28.396Z,90.93
2022-09-28T01:00:58.408Z,90.42
2022-09-28T01:03:27.350Z,89.37
2022-09-28T01:05:58.507Z,88.93
2022-09-28T01:08:28.533Z,89.35
2022-09-28T01:10:57.310Z,90.49
2022-09-28T01:13:25.338Z,90.67
2022-09-28T01:16:08.503Z,91.12
2022-09-28T01:18:55.424Z,90.80
2022-09-28T01:21:24.590Z,90.97
2022-09-28T01:24:11.110Z,90.24
2022-09-28T01:29:33.771Z,89.20
2022-09-28T01:32:27.567Z,88.59
2022-09-28T01:34:57.964Z,88.16
2022-09-28T01:37:36.984Z,87.63
2022-09-28T01:40:07.908Z,87.03
2022-09-28T01:42:39.813Z,88.73
2022-09-28T01:45:14.908Z,90.82
2022-09-28T01:47:46.259Z,90.71
2022-09-28T01:50:19.412Z,91.00
2022-09-28T01:52:56.824Z,89.66
2022-09-28T01:55:33.940Z,90.83
2022-09-28T01:58:07.727Z,88.90
2022-09-28T02:00:41.881Z,89.76
2022-09-28T02:03:17.790Z,91.57
2022-09-28T02:05:59.552Z,91.25
2022-09-28T02:08:34.642Z,90.40
2022-09-28T02:11:22.677Z,88.88
2022-09-28T02:17:39.175Z,89.64
2022-09-28T02:20:08.263Z,89.64
2022-09-28T02:22:50.897Z,90.10
2022-09-28T02:25:40.454Z,90.16
2022-09-28T02:28:11.601Z,90.72
2022-09-28T02:30:41.997Z,90.03
2022-09-28T02:33:29.494Z,90.51
2022-09-28T02:35:59.914Z,89.35
2022-09-28T02:38:27.478Z,89.47
2022-09-28T02:41:07.022Z,91.29
2022-09-28T02:43:40.539Z,91.63
2022-09-28T02:46:16.415Z,93.08
2022-09-28T02:49:21.872Z,93.82
2022-09-28T02:52:31.409Z,93.94
2022-09-28T02:55:22.407Z,93.04
2022-09-28T02:58:11.399Z,93.03
2022-09-28T03:00:49.903Z,93.36
2022-09-28T03:03:45.881Z,92.42
2022-09-28T03:06:31.113Z,92.96
2022-09-28T03:09:05.883Z,93.41
2022-09-28T03:11:39.597Z,90.72
2022-09-28T03:14:07.403Z,91.04
2022-09-28T03:16:36.589Z,92.10
2022-09-28T03:19:04.120Z,90.73
2022-09-28T03:21:31.422Z,90.52
2022-09-28T03:23:59.143Z,90.82
2022-09-28T03:26:26.590Z,90.81
2022-09-28T03:28:53.992Z,88.33
2022-09-28T03:31:22.042Z,88.26
2022-09-28T03:33:51.519Z,87.52
2022-09-28T03:36:18.921Z,88.58
2022-09-28T03:38:46.903Z,89.05
2022-09-28T03:41:15.080Z,87.13
2022-09-28T03:43:42.962Z,89.34
2022-09-28T03:46:14.234Z,89.77
2022-09-28T03:48:42.329Z,89.82
2022-09-28T03:51:11.169Z,89.49
2022-09-28T03:53:39.971Z,89.35
2022-09-28T03:56:15.958Z,88.29
2022-09-28T03:58:43.695Z,89.17
2022-09-28T04:01:16.823Z,88.79
2022-09-28T04:03:46.150Z,89.06
2022-09-28T04:06:14.279Z,89.43
2022-09-28T04:08:43.198Z,89.73
2022-09-28T04:11:11.193Z,89.88
2022-09-28T04:13:39.015Z,89.27
2022-09-28T04:16:07.144Z,89.76
2022-09-28T04:18:35.455Z,89.41
2022-09-28T04:21:10.927Z,88.55
2022-09-28T04:23:40.119Z,90.05
2022-09-28T04:26:12.368Z,90.77
2022-09-28T04:29:01.647Z,90.45
2022-09-28T04:32:00.032Z,90.12
2022-09-28T04:34:33.162Z,89.07
2022-09-28T04:37:02.796Z,89.42
2022-09-28T04:39:30.539Z,88.79
2022-09-28T04:41:57.935Z,88.53
2022-09-28T04:44:25.518Z,88.98
2022-09-28T04:46:56.482Z,90.34
2022-09-28T04:49:26.098Z,90.42
2022-09-28T04:51:53.813Z,90.04
2022-09-28T04:54:21.171Z,91.42
2022-09-28T04:56:49.293Z,89.94
2022-09-28T04:59:17.119Z,90.97
2022-09-28T05:01:45.036Z,91.74
2022-09-28T05:04:13.521Z,91.00
2022-09-28T05:06:42.674Z,89.44
2022-09-28T05:09:10.235Z,89.48
2022-09-28T05:11:37.728Z,89.24
2022-09-28T05:14:06.453Z,88.32
2022-09-28T05:16:34.345Z,89.10
2022-09-28T05:19:08.442Z,89.26
2022-09-28T05:21:35.988Z,90.35
2022-09-28T05:24:07.685Z,91.14
2022-09-28T05:26:35.862Z,90.21
2022-09-28T05:29:03.512Z,89.94
2022-09-28T05:31:32.989Z,88.13
2022-09-28T05:34:02.687Z,85.36
2022-09-28T05:36:31.136Z,85.85
2022-09-28T05:38:59.769Z,88.04
2022-09-28T05:41:27.645Z,89.15
2022-09-28T05:43:55.227Z,89.30
2022-09-28T05:46:23.940Z,88.80
2022-09-28T05:48:52.780Z,90.40
2022-09-28T05:51:20.864Z,90.66
2022-09-28T05:53:48.362Z,89.85
2022-09-28T05:56:16.577Z,89.88
2022-09-28T05:58:44.488Z,89.17
2022-09-28T06:01:12.862Z,88.52
2022-09-28T06:03:41.364Z,88.82
2022-09-28T06:06:10.072Z,87.99
2022-09-28T06:08:38.375Z,87.64
2022-09-28T06:11:07.183Z,88.86
2022-09-28T06:13:35.431Z,88.16
2022-09-28T06:16:05.186Z,88.71
2022-09-28T06:18:33.127Z,88.40
2022-09-28T06:21:02.790Z,90.17
2022-09-28T06:23:30.743Z,88.77
2022-09-28T06:26:00.228Z,89.61
2022-09-28T06:28:28.188Z,88.87
2022-09-28T06:30:56.300Z,87.73
2022-09-28T06:33:25.789Z,88.60
2022-09-28T06:35:53.471Z,86.90
2022-09-28T06:38:20.938Z,86.85
2022-09-28T06:40:49.744Z,85.39
2022-09-28T06:43:17.471Z,83.77
2022-09-28T06:45:53.748Z,84.22
2022-09-28T06:48:21.553Z,83.83
2022-09-28T06:50:50.227Z,85.21
2022-09-28T06:53:18.036Z,86.51
2022-09-28T06:55:50.175Z,83.21
2022-09-28T06:58:20.845Z,83.00
2022-09-28T07:00:51.471Z,85.21
2022-09-28T07:03:21.961Z,79.06
2022-09-28T07:05:52.908Z,77.59
2022-09-28T07:08:26.394Z,68.24
2022-09-28T07:10:56.406Z,64.05
2022-09-28T07:13:48.556Z,67.97
2022-09-28T07:16:20.631Z,69.29
2022-09-28T07:18:51.976Z,69.60
2022-09-28T07:21:29.110Z,60.23
2022-09-28T07:24:00.159Z,63.33
2022-09-28T07:26:33.419Z,61.91
2022-09-28T07:29:01.530Z,58.01
2022-09-28T07:31:29.887Z,56.73
2022-09-28T07:33:58.770Z,56.68
2022-09-28T07:36:26.964Z,58.10
2022-09-28T07:38:54.528Z,57.75
2022-09-28T07:41:32.517Z,54.62
2022-09-28T07:44:07.712Z,53.79
2022-09-28T07:46:36.309Z,54.20
2022-09-28T07:49:11.380Z,51.14
2022-09-28T07:51:44.494Z,53.04
2022-09-28T07:54:12.999Z,54.18
2022-09-28T07:56:40.600Z,53.10
2022-09-28T07:59:08.550Z,50.58
2022-09-28T08:01:40.235Z,51.02
2022-09-28T08:04:08.814Z,52.34
2022-09-28T08:06:36.388Z,51.98
2022-09-28T08:09:04.561Z,52.65
2022-09-28T08:11:33.849Z,53.93
2022-09-28T08:14:02.378Z,52.48
2022-09-28T08:16:33.373Z,51.26
2022-09-28T08:19:01.108Z,53.31
2022-09-28T08:21:47.272Z,57.25
2022-09-28T08:24:16.995Z,56.12
2022-09-28T08:26:44.990Z,53.59
2022-09-28T08:29:12.837Z,54.07
2022-09-28T08:31:41.199Z,52.43
2022-09-28T08:34:09.244Z,53.25
2022-09-28T08:36:39.380Z,51.97
2022-09-28T08:39:09.519Z,53.36
2022-09-28T08:41:51.720Z,54.37
2022-09-28T08:44:24.769Z,51.71
2022-09-28T08:47:06.595Z,53.34
2022-09-28T08:49:37.263Z,49.57
2022-09-28T08:52:30.053Z,52.38
2022-09-28T08:55:33.924Z,50.14
2022-09-28T08:58:15.505Z,49.08
2022-09-28T09:00:48.953Z,46.19
2022-09-28T09:03:42.056Z,47.15
2022-09-28T09:06:29.856Z,47.33
2022-09-28T09:09:34.832Z,48.37
2022-09-28T09:12:36.941Z,47.11
2022-09-28T09:15:33.038Z,45.60
2022-09-28T09:18:10.795Z,43.74
2022-09-28T09:20:59.437Z,44.07
2022-09-28T09:23:38.679Z,42.79
2022-09-28T09:26:23.979Z,43.92
2022-09-28T09:28:56.536Z,44.45
2022-09-28T09:31:41.198Z,44.72
2022-09-28T09:34:31.059Z,42.87
2022-09-28T09:37:02.066Z,42.03
2022-09-28T09:40:26.422Z,41.52
2022-09-28T09:43:04.497Z,41.44
2022-09-28T09:45:55.074Z,40.80
2022-09-28T09:48:40.407Z,40.42
2022-09-28T09:51:40.632Z,40.90
2022-09-28T09:54:29.377Z,40.98
2022-09-28T09:57:17.618Z,40.95
2022-09-28T09:59:47.668Z,41.39
2022-09-28T10:02:28.903Z,38.78
2022-09-28T10:05:07.006Z,39.82
2022-09-28T10:07:46.545Z,39.72
2022-09-28T10:10:23.017Z,37.95
2022-09-28T10:12:52.179Z,40.46
2022-09-28T10:15:26.638Z,38.00
2022-09-28T10:17:57.186Z,40.15
2022-09-28T10:20:37.256Z,37.83
2022-09-28T10:23:09.879Z,38.43
2022-09-28T10:25:38.656Z,34.71
2022-09-28T10:28:07.870Z,36.24
2022-09-28T10:30:43.024Z,36.55
2022-09-28T10:33:34.306Z,34.75
2022-09-28T10:36:07.052Z,37.72
2022-09-28T10:38:35.654Z,38.14
2022-09-28T10:41:11.576Z,38.50
2022-09-28T10:44:08.865Z,38.50
2022-09-28T10:46:39.300Z,36.97
2022-09-28T10:49:17.089Z,38.45
2022-09-28T10:51:54.864Z,38.49
2022-09-28T10:54:26.093Z,38.62
2022-09-28T10:56:55.306Z,37.02
2022-09-28T10:59:30.001Z,36.33
2022-09-28T11:02:04.754Z,37.07
2022-09-28T11:04:44.003Z,36.06
2022-09-28T11:07:32.521Z,36.01
2022-09-28T11:10:02.140Z,38.01
2022-09-28T11:12:44.274Z,37.07
2022-09-28T11:15:19.761Z,36.21
2022-09-28T11:17:47.977Z,35.21
2022-09-28T11:20:28.154Z,37.52
2022-09-28T11:22:58.836Z,35.14
2022-09-28T11:25:31.657Z,35.44
2022-09-28T11:28:02.420Z,34.05
2022-09-28T11:30:52.793Z,36.05
2022-09-28T11:33:37.030Z,35.93
2022-09-28T11:36:14.931Z,35.48
2022-09-28T11:38:55.746Z,37.60
2022-09-28T11:41:30.680Z,38.65
2022-09-28T11:44:16.374Z,36.48
2022-09-28T11:46:57.050Z,37.38
2022-09-28T11:49:40.273Z,37.22
2022-09-28T11:52:21.361Z,37.09
2022-09-28T11:54:58.721Z,35.11
2022-09-28T11:57:35.929Z,36.33
2022-09-28T12:00:15.074Z,37.93
2022-09-28T12:02:52.394Z,35.11
2022-09-28T12:05:27.662Z,34.99
2022-09-28T12:08:00.632Z,35.55
2022-09-28T12:10:44.662Z,33.63
2022-09-28T12:13:29.998Z,33.21
2022-09-28T12:16:27.649Z,34.53
2022-09-28T12:19:04.138Z,34.50
2022-09-28T12:21:45.162Z,33.59
2022-09-28T12:24:21.763Z,34.62
2022-09-28T12:27:25.717Z,33.98
2022-09-28T12:30:00.968Z,34.28
2022-09-28T12:32:38.770Z,34.96
2022-09-28T12:35:15.321Z,36.07
2022-09-28T12:37:54.508Z,37.36
2022-09-28T12:40:29.036Z,37.13
2022-09-28T12:43:09.843Z,36.72
2022-09-28T12:46:11.522Z,36.82
2022-09-28T12:52:21.807Z,35.17
2022-09-28T12:55:01.357Z,35.63
2022-09-28T12:58:07.949Z,35.50
2022-09-28T13:00:50.092Z,37.06
2022-09-28T13:03:32.719Z,38.71
2022-09-28T13:06:25.251Z,38.05
2022-09-28T13:09:25.095Z,37.98
2022-09-28T13:12:18.960Z,37.25
2022-09-28T13:15:09.010Z,39.49
2022-09-28T13:17:54.453Z,39.07
2022-09-28T13:20:39.096Z,39.50
2022-09-28T13:23:25.843Z,39.41
2022-09-28T13:26:15.031Z,37.53
2022-09-28T13:28:45.506Z,38.69
2022-09-28T13:31:18.195Z,37.92
2022-09-28T13:33:47.459Z,37.86
2022-09-28T13:36:32.844Z,37.88
2022-09-28T13:39:01.351Z,38.14
2022-09-28T13:41:40.609Z,39.09
2022-09-28T13:44:11.752Z,39.37
2022-09-28T13:47:20.482Z,38.14
2022-09-28T13:50:00.640Z,37.45
2022-09-28T13:52:48.017Z,37.01
2022-09-28T13:55:27.882Z,36.50
2022-09-28T13:58:05.852Z,35.92
2022-09-28T14:00:45.691Z,35.32
2022-09-28T14:03:27.887Z,35.42
2022-09-28T14:06:26.552Z,36.03
2022-09-28T14:09:09.218Z,33.87
2022-09-28T14:11:36.968Z,31.37
2022-09-28T14:14:08.407Z,29.99
2022-09-28T14:16:37.750Z,29.74
2022-09-28T14:19:27.065Z,27.11
2022-09-28T14:22:13.385Z,28.61
2022-09-28T14:24:56.329Z,26.76
2022-09-28T14:28:02.607Z,27.59
2022-09-28T14:30:42.829Z,24.24
2022-09-28T14:33:20.125Z,24.56
2022-09-28T14:35:55.847Z,23.93
2022-09-28T14:38:49.850Z,23.96
2022-09-28T14:41:20.339Z,23.78
2022-09-28T14:43:47.998Z,23.75
2022-09-28T14:46:15.881Z,22.94
2022-09-28T14:48:55.587Z,23.56
2022-09-28T14:51:34.940Z,24.72
2022-09-28T14:54:13.159Z,25.67
2022-09-28T14:56:40.897Z,26.35
2022-09-28T14:59:17.552Z,24.64
2022-09-28T15:02:01.853Z,23.99
2022-09-28T15:04:31.475Z,26.04
2022-09-28T15:07:00.409Z,25.99
2022-09-28T15:09:36.587Z,27.94
2022-09-28T15:12:18.402Z,28.07
2022-09-28T15:14:53.573Z,26.56
2022-09-28T15:17:37.015Z,28.63
2022-09-28T15:20:25.806Z,31.50
2022-09-28T15:22:58.971Z,32.07
2022-09-28T15:25:32.203Z,35.20
2022-09-28T15:28:03.650Z,35.90
2022-09-28T15:30:36.790Z,37.48
2022-09-28T15:33:24.362Z,39.38
2022-09-28T15:36:03.331Z,40.12
2022-09-28T15:38:34.419Z,40.36
2022-09-28T15:41:06.997Z,40.70
2022-09-28T15:43:37.303Z,45.25
2022-09-28T15:46:11.848Z,46.68
2022-09-28T15:48:46.346Z,47.47
2022-09-28T15:51:13.764Z,46.24
2022-09-28T15:53:43.550Z,48.02
2022-09-28T15:56:12.014Z,48.76
2022-09-28T15:58:40.249Z,49.65
2022-09-28T16:01:20.661Z,52.95
2022-09-28T16:03:48.465Z,54.43
2022-09-28T16:06:15.853Z,55.03
2022-09-28T16:08:46.017Z,57.06
2022-09-28T16:11:38.050Z,57.79
2022-09-28T16:14:17.616Z,58.40
2022-09-28T16:16:50.996Z,59.31
2022-09-28T16:19:25.073Z,56.84
2022-09-28T16:22:02.281Z,56.41
2022-09-28T16:24:36.454Z,57.87
2022-09-28T16:27:23.291Z,58.21
2022-09-28T16:30:22.197Z,59.82
2022-09-28T16:32:59.448Z,59.42
2022-09-28T16:35:51.672Z,61.67
2022-09-28T16:38:20.953Z,62.10
2022-09-28T16:40:50.757Z,63.27
2022-09-28T16:43:26.999Z,62.67
2022-09-28T16:46:09.459Z,62.68
2022-09-28T16:48:40.729Z,62.21
2022-09-28T16:51:08.365Z,62.28
2022-09-28T16:53:54.777Z,62.33
2022-09-28T16:56:22.681Z,63.24
2022-09-28T16:58:50.856Z,63.57
2022-09-28T17:01:18.283Z,64.31
2022-09-28T17:03:48.976Z,64.27
2022-09-28T17:06:19.144Z,63.64
2022-09-28T17:08:47.004Z,63.13
2022-09-28T17:11:22.711Z,64.15
2022-09-28T17:13:52.511Z,64.09
2022-09-28T17:16:42.666Z,65.46
2022-09-28T17:19:25.193Z,64.90
2022-09-28T17:21:53.086Z,66.09
2022-09-28T17:24:21.800Z,65.33
2022-09-28T17:26:52.312Z,65.10
2022-09-28T17:29:20.074Z,65.26
2022-09-28T17:31:48.491Z,65.27
2022-09-28T17:34:16.899Z,65.56
2022-09-28T17:36:45.316Z,65.90
2022-09-28T17:39:15.555Z,66.71
2022-09-28T17:41:43.120Z,67.30
2022-09-28T17:44:10.958Z,67.80
2022-09-28T17:46:46.140Z,67.40
2022-09-28T17:49:13.994Z,67.09
2022-09-28T17:51:42.122Z,65.99
2022-09-28T17:54:09.599Z,66.51
2022-09-28T17:56:38.265Z,66.95
2022-09-28T17:59:10.833Z,67.21
2022-09-28T18:01:40.344Z,67.75
2022-09-28T18:04:15.902Z,68.48
2022-09-28T18:06:55.325Z,69.16
2022-09-28T18:09:25.461Z,67.50
2022-09-28T18:12:00.766Z,69.18
2022-09-28T18:14:29.236Z,69.09
2022-09-28T18:16:57.307Z,67.94
2022-09-28T18:19:28.629Z,67.68
2022-09-28T18:21:59.715Z,69.01
2022-09-28T18:24:27.133Z,69.66
2022-09-28T18:26:54.476Z,70.01
2022-09-28T18:29:22.230Z,69.35
2022-09-28T18:31:50.444Z,69.65
2022-09-28T18:34:18.200Z,70.29
2022-09-28T18:36:46.029Z,69.41
2022-09-28T18:39:13.431Z,69.27
2022-09-28T18:41:42.887Z,69.52
2022-09-28T18:44:11.226Z,69.62
2022-09-28T18:46:38.700Z,68.73
2022-09-28T18:49:06.998Z,68.13
2022-09-28T18:51:35.211Z,70.55
2022-09-28T18:54:07.302Z,70.75
2022-09-28T18:56:38.142Z,73.15
2022-09-28T18:59:11.738Z,72.40
2022-09-28T19:01:41.876Z,73.61
2022-09-28T19:04:12.132Z,73.60
2022-09-28T19:06:43.355Z,72.87
2022-09-28T19:09:11.265Z,72.01
2022-09-28T19:11:38.657Z,72.82
2022-09-28T19:14:06.811Z,71.82
2022-09-28T19:16:34.625Z,71.93
2022-09-28T19:19:03.379Z,71.24
2022-09-28T19:21:31.471Z,71.12
2022-09-28T19:24:02.832Z,70.99
2022-09-28T19:26:31.153Z,71.84
2022-09-28T19:28:59.834Z,71.74
2022-09-28T19:31:27.687Z,71.27
2022-09-28T19:33:55.162Z,70.98
2022-09-28T19:36:24.377Z,70.86
2022-09-28T19:38:57.583Z,71.35
2022-09-28T19:41:46.568Z,71.22
2022-09-28T19:44:26.399Z,73.22
2022-09-28T19:47:07.593Z,73.40
2022-09-28T19:49:38.156Z,73.80
2022-09-28T19:52:17.014Z,73.35
2022-09-28T19:54:58.354Z,74.08
2022-09-28T19:57:29.365Z,73.64
2022-09-28T20:00:02.017Z,73.16
2022-09-28T20:02:34.094Z,74.54
2022-09-28T20:05:02.263Z,74.06
2022-09-28T20:07:33.086Z,73.70
2022-09-28T20:10:00.652Z,74.11
2022-09-28T20:12:29.532Z,74.62
2022-09-28T20:14:57.022Z,74.93
2022-09-28T20:17:27.779Z,74.10
2022-09-28T20:19:56.407Z,74.46
2022-09-28T20:22:23.989Z,74.96
2022-09-28T20:24:51.544Z,75.64
2022-09-28T20:27:22.104Z,75.50
2022-09-28T20:29:53.019Z,75.39
2022-09-28T20:32:21.297Z,76.59
2022-09-28T20:34:48.715Z,75.84
2022-09-28T20:37:17.715Z,75.39
2022-09-28T20:39:45.633Z,75.42
2022-09-28T20:42:15.753Z,76.37
2022-09-28T20:44:43.754Z,75.48
2022-09-28T20:47:11.533Z,75.65
2022-09-28T20:49:38.960Z,75.76
2022-09-28T20:52:06.739Z,74.67
2022-09-28T20:54:35.159Z,75.21
2022-09-28T20:57:02.523Z,75.44
2022-09-28T20:59:31.313Z,76.37
2022-09-28T21:01:58.908Z,76.39
2022-09-28T21:04:27.200Z,76.93
2022-09-28T21:06:55.336Z,75.96
2022-09-28T21:09:23.219Z,76.17
2022-09-28T21:11:50.635Z,75.96
2022-09-28T21:14:18.820Z,76.30
2022-09-28T21:16:46.714Z,77.10
2022-09-28T21:19:14.107Z,76.71
2022-09-28T21:21:41.466Z,75.53
2022-09-28T21:24:09.928Z,74.90
2022-09-28T21:26:37.304Z,75.35
2022-09-28T21:29:07.323Z,76.11
2022-09-28T21:31:39.426Z,76.05
2022-09-28T21:34:07.498Z,75.87
2022-09-28T21:36:35.210Z,76.06
2022-09-28T21:39:04.172Z,76.66
2022-09-28T21:41:34.845Z,76.53
2022-09-28T21:44:02.412Z,76.52
2022-09-28T21:46:34.890Z,76.96
2022-09-28T21:49:06.458Z,79.18
2022-09-28T21:51:34.944Z,80.84
2022-09-28T21:54:03.163Z,79.71
2022-09-28T21:56:31.424Z,79.81
2022-09-28T21:58:58.856Z,79.65
2022-09-28T22:01:26.873Z,80.38
2022-09-28T22:03:56.858Z,79.13
2022-09-28T22:06:28.447Z,78.52
2022-09-28T22:08:56.898Z,78.41
2022-09-28T22:11:27.238Z,79.46
2022-09-28T22:14:00.175Z,78.69
2022-09-28T22:16:30.809Z,80.11
2022-09-28T22:18:59.778Z,78.83
2022-09-28T22:21:29.143Z,79.76
2022-09-28T22:24:02.283Z,78.53
2022-09-28T22:26:31.943Z,78.00
2022-09-28T22:29:02.581Z,78.82
2022-09-28T22:31:40.803Z,79.68
2022-09-28T22:34:09.183Z,80.07
2022-09-28T22:36:37.290Z,81.28
2022-09-28T22:39:05.521Z,81.18
2022-09-28T22:41:33.461Z,80.81
2022-09-28T22:44:01.722Z,81.02
2022-09-28T22:46:32.154Z,80.26
2022-09-28T22:49:00.766Z,80.80
2022-09-28T22:51:30.071Z,80.83
2022-09-28T22:53:58.308Z,79.87
2022-09-28T22:56:26.130Z,79.64
2022-09-28T22:58:54.288Z,79.31
2022-09-28T23:01:30.628Z,79.46
2022-09-28T23:03:59.612Z,79.41
2022-09-28T23:06:30.603Z,79.36
2022-09-28T23:08:59.563Z,79.14
2022-09-28T23:11:28.487Z,78.88
2022-09-28T23:13:57.989Z,79.44
2022-09-28T23:16:27.543Z,79.01
2022-09-28T23:18:55.859Z,78.67
2022-09-28T23:21:26.100Z,79.24
2022-09-28T23:23:57.338Z,78.26
2022-09-28T23:26:30.483Z,78.43
2022-09-28T23:28:59.001Z,78.97
2022-09-28T23:31:32.322Z,79.35
2022-09-28T23:34:02.095Z,77.97
2022-09-28T23:36:30.236Z,79.70
2022-09-28T23:38:57.683Z,79.21
2022-09-28T23:41:25.856Z,79.29
2022-09-28T23:43:53.789Z,79.64
2022-09-28T23:46:21.508Z,78.66
2022-09-28T23:48:50.270Z,79.22
2022-09-28T23:51:17.972Z,78.90
2022-09-28T23:53:46.512Z,80.32
2022-09-28T23:56:14.859Z,79.36
2022-09-28T23:58:42.870Z,79.89
